Time;durP1;ratioP1;P1;durP2;ratioP2;P2;SDS_P1;SDS_P2;PMS_P1;PMS_P2;Temp;Humidity;BMP_temperature;BMP_pressure;BME280_temperature;BME280_humidity;BME280_pressure;Samples;Min_cycle;Max_cycle;Signal;HPM_P1;HPM_P2
2023/03/31 00:01:24;;;;;;;0.70;0.40;;;;;;;0.01;64.44;100620.28;5039948;28;20335;-77
2023/03/31 00:04:00;;;;;;;2.10;0.40;;;;;;;-0.12;64.48;100596.88;5042502;28;20640;-76
2023/03/31 00:06:28;;;;;;;0.47;0.30;;;;;;;-0.03;64.98;100614.19;5039367;28;20131;-77
2023/03/31 00:09:00;;;;;;;0.82;0.32;;;;;;;0.02;64.58;100620.31;5038065;28;20485;-77
2023/03/31 00:11:29;;;;;;;2.20;0.70;;;;;;;-0.05;64.78;100603.91;5045346;28;20041;-77
2023/03/31 00:13:58;;;;;;;0.40;0.30;;;;;;;0.00;64.03;100619.41;5036915;28;20041;-77
2023/03/31 00:16:25;;;;;;;3.53;0.32;;;;;;;0.01;64.88;100621.16;5040869;28;20057;-77
2023/03/31 00:18:52;;;;;;;0.30;0.20;;;;;;;0.00;64.65;100611.72;5041742;28;20045;-77
2023/03/31 00:21:32;;;;;;;0.95;0.40;;;;;;;-0.01;64.91;100615.97;5040868;28;20057;-77
2023/03/31 00:24:01;;;;;;;1.08;0.45;;;;;;;-0.01;64.95;100610.81;5040939;28;20404;-77
2023/03/31 00:26:28;;;;;;;0.73;0.40;;;;;;;0.00;64.13;100609.16;5038443;28;20091;-77
2023/03/31 00:28:57;;;;;;;0.85;0.40;;;;;;;-0.01;64.73;100599.69;5040414;28;20108;-77
2023/03/31 00:31:25;;;;;;;1.85;0.40;;;;;;;0.01;64.95;100592.91;5041805;28;20082;-77
2023/03/31 00:33:52;;;;;;;2.65;0.50;;;;;;;0.03;64.81;100605.75;5042906;28;20045;-76
2023/03/31 00:36:26;;;;;;;0.65;0.57;;;;;;;0.02;64.31;100593.75;5041659;28;20045;-77
2023/03/31 00:38:53;;;;;;;0.30;0.30;;;;;;;0.04;64.52;100592.09;5040350;28;20052;-77
2023/03/31 00:41:21;;;;;;;1.30;0.30;;;;;;;0.03;64.16;100583.53;5041706;28;20476;-76
2023/03/31 00:44:08;;;;;;;0.73;0.35;;;;;;;0.02;64.52;100589.47;5038438;28;20053;-77
2023/03/31 00:46:40;;;;;;;0.70;0.40;;;;;;;0.04;64.70;100592.09;5041382;28;20394;-77
2023/03/31 00:49:15;;;;;;;2.20;0.30;;;;;;;-0.01;64.41;100581.72;5037238;28;20602;-77
2023/03/31 00:51:43;;;;;;;0.30;0.30;;;;;;;-0.09;64.91;100566.13;5048705;28;20115;-77
2023/03/31 00:54:10;;;;;;;0.40;0.40;;;;;;;-0.02;64.69;100577.44;5041705;28;20051;-77
2023/03/31 00:56:41;;;;;;;0.70;0.40;;;;;;;0.01;64.23;100581.75;5041224;28;20414;-77
2023/03/31 00:59:13;;;;;;;0.82;0.50;;;;;;;-0.05;64.34;100578.22;5043924;28;20059;-76
2023/03/31 01:01:42;;;;;;;0.70;0.52;;;;;;;-0.05;64.50;100573.09;5038411;28;20045;-77
2023/03/31 01:04:10;;;;;;;2.22;0.28;;;;;;;-0.04;64.68;100576.53;5044236;28;20049;-77
2023/03/31 01:06:45;;;;;;;0.60;0.30;;;;;;;-0.02;64.45;100577.44;5039685;28;20156;-76
2023/03/31 01:09:13;;;;;;;0.32;0.30;;;;;;;0.00;64.21;100570.63;5041664;28;20486;-77
2023/03/31 01:11:40;;;;;;;0.57;0.40;;;;;;;0.01;64.95;100569.78;5036747;28;20049;-77
2023/03/31 01:14:08;;;;;;;2.60;0.30;;;;;;;0.01;64.93;100572.34;5037962;28;20038;-77
2023/03/31 01:16:38;;;;;;;2.05;0.57;;;;;;;0.03;64.22;100575.84;5037309;28;20136;-77
2023/03/31 01:19:08;;;;;;;0.10;0.10;;;;;;;0.02;64.50;100563.81;5042887;28;20382;-77
2023/03/31 01:22:19;;;;;;;0.60;0.40;;;;;;;0.00;64.20;100557.78;5041794;28;20049;-76
2023/03/31 01:25:16;;;;;;;1.10;0.30;;;;;;;0.00;64.64;100557.78;5020762;28;20513;-77
2023/03/31 01:28:06;;;;;;;2.08;0.50;;;;;;;-0.07;65.15;100540.50;5042906;28;20045;-76
2023/03/31 01:31:16;;;;;;;1.15;0.30;;;;;;;0.00;64.29;100547.53;5042616;28;20560;-77
2023/03/31 01:34:28;;;;;;;1.20;0.20;;;;;;;-0.04;64.71;100540.56;5036274;28;20056;-77
2023/03/31 01:37:34;;;;;;;1.02;0.20;;;;;;;-0.02;65.10;100547.47;5037048;28;20041;-77
2023/03/31 01:40:34;;;;;;;0.82;0.40;;;;;;;-0.04;64.69;100536.28;5034589;28;20137;-77
2023/03/31 01:43:10;;;;;;;0.30;0.30;;;;;;;-0.02;64.72;100547.47;5039782;28;20409;-77
2023/03/31 01:45:47;;;;;;;0.93;0.32;;;;;;;-0.02;64.29;100544.03;5038578;28;20064;-78
2023/03/31 01:48:17;;;;;;;0.93;0.40;;;;;;;-0.02;64.87;100541.47;5042146;28;20683;-76
2023/03/31 01:50:47;;;;;;;1.60;0.30;;;;;;;-0.02;64.53;100549.19;5041776;28;20131;-77
2023/03/31 01:53:21;;;;;;;0.43;0.32;;;;;;;-0.02;64.81;100550.03;5046000;28;20047;-77
2023/03/31 01:55:57;;;;;;;2.45;0.45;;;;;;;-0.15;64.42;100519.81;5045082;28;20123;-77
2023/03/31 01:58:28;;;;;;;0.60;0.40;;;;;;;-0.04;65.03;100536.28;5039482;28;20076;-76
2023/03/31 02:01:02;;;;;;;0.70;0.40;;;;;;;-0.02;64.70;100538.91;5037597;28;20049;-77
2023/03/31 02:03:34;;;;;;;0.68;0.30;;;;;;;-0.07;65.14;100525.09;5042358;28;20135;-77
2023/03/31 02:06:07;;;;;;;0.75;0.40;;;;;;;-0.02;65.07;100531.22;5037335;28;20052;-76
2023/03/31 02:08:38;;;;;;;2.50;0.30;;;;;;;-0.01;64.64;100530.34;5042629;28;20051;-77
2023/03/31 02:11:07;;;;;;;1.05;0.30;;;;;;;-0.02;64.88;100537.19;5043666;28;20041;-77
2023/03/31 02:13:38;;;;;;;0.30;0.30;;;;;;;-0.03;64.77;100529.44;5042115;28;20041;-76
2023/03/31 02:16:10;;;;;;;0.50;0.47;;;;;;;-0.02;65.22;100536.34;5041522;28;20053;-77
2023/03/31 02:18:40;;;;;;;0.40;0.17;;;;;;;-0.07;64.88;100523.41;5048125;28;20068;-77
2023/03/31 02:21:08;;;;;;;0.77;0.30;;;;;;;-0.03;64.14;100535.47;5045548;28;20045;-76
2023/03/31 02:23:38;;;;;;;0.75;0.40;;;;;;;-0.02;64.69;100531.22;5043340;28;20052;-72
2023/03/31 02:26:11;;;;;;;1.60;0.28;;;;;;;-0.05;65.21;100526.88;5041475;28;20052;-72
2023/03/31 02:28:38;;;;;;;1.63;0.30;;;;;;;-0.02;64.83;100532.06;5039264;28;20056;-72
2023/03/31 02:31:14;;;;;;;0.30;0.30;;;;;;;-0.01;64.84;100527.78;5038538;28;20059;-72
2023/03/31 02:33:40;;;;;;;;;;;;;;;-0.02;64.35;100533.78;5039733;28;20048;-72
2023/03/31 02:36:08;;;;;;;0.40;0.30;;;;;;;-0.02;64.97;100528.63;5036831;28;20027;-73
2023/03/31 02:38:40;;;;;;;0.90;0.30;;;;;;;-0.02;64.61;100532.06;5035936;28;20049;-72
2023/03/31 02:41:09;;;;;;;0.40;0.20;;;;;;;-0.01;64.89;100528.66;5040016;28;20045;-72
2023/03/31 02:43:36;;;;;;;0.50;0.30;;;;;;;-0.01;65.04;100530.34;5038086;28;20102;-72
2023/03/31 02:46:03;;;;;;;0.60;0.20;;;;;;;0.01;65.31;100535.53;5035501;28;20044;-72
2023/03/31 02:48:33;;;;;;;1.45;0.40;;;;;;;-0.01;64.61;100536.34;5039122;28;20063;-72
2023/03/31 02:51:25;;;;;;;5.93;0.55;;;;;;;0.00;65.23;100526.97;5037788;28;20049;-72
2023/03/31 02:54:05;;;;;;;0.57;0.30;;;;;;;0.01;65.25;100523.56;5040378;28;20055;-73
2023/03/31 02:56:50;;;;;;;1.33;0.40;;;;;;;0.02;64.56;100527.84;5038491;28;20049;-72
2023/03/31 02:59:33;;;;;;;1.38;0.30;;;;;;;-0.01;64.45;100528.66;5041027;28;20060;-73
2023/03/31 03:02:12;;;;;;;0.50;0.30;;;;;;;0.02;64.46;100522.72;5038632;28;20045;-73
2023/03/31 03:04:58;;;;;;;1.35;0.38;;;;;;;0.03;64.71;100523.56;5041736;28;20080;-72
2023/03/31 03:07:32;;;;;;;0.70;0.50;;;;;;;0.04;64.67;100530.47;5041553;28;20056;-73
2023/03/31 03:10:07;;;;;;;1.08;0.38;;;;;;;0.03;65.27;100529.59;5039917;28;20055;-72
2023/03/31 03:12:44;;;;;;;0.63;0.40;;;;;;;0.04;65.14;100531.31;5041350;28;20045;-72
2023/03/31 03:15:16;;;;;;;1.42;0.45;;;;;;;0.01;64.81;100515.84;5038137;28;20132;-73
2023/03/31 03:17:46;;;;;;;0.30;0.25;;;;;;;0.04;65.32;100526.19;5035754;28;20063;-72
2023/03/31 03:20:15;;;;;;;0.40;0.30;;;;;;;0.06;64.96;100521.06;5039384;28;20045;-73
2023/03/31 03:22:42;;;;;;;0.30;0.20;;;;;;;0.07;64.68;100525.38;5039735;28;20049;-72
2023/03/31 03:25:12;;;;;;;1.40;0.30;;;;;;;0.07;65.04;100523.69;5036685;28;20425;-73
2023/03/31 03:27:40;;;;;;;0.75;0.30;;;;;;;0.07;64.73;100515.97;5041185;28;20048;-72
2023/03/31 03:30:10;;;;;;;3.20;0.47;;;;;;;0.07;64.75;100521.13;5038378;28;20049;-72
2023/03/31 03:32:37;;;;;;;1.55;0.25;;;;;;;0.07;65.13;100521.13;5038468;28;20049;-72
2023/03/31 03:35:06;;;;;;;0.43;0.30;;;;;;;0.06;64.51;100518.50;5036510;28;20516;-73
2023/03/31 03:37:33;;;;;;;1.17;0.40;;;;;;;0.08;65.09;100519.41;5042923;28;20134;-72
2023/03/31 03:40:00;;;;;;;1.65;0.30;;;;;;;0.07;63.97;100515.97;5041240;28;20501;-73
2023/03/31 03:42:26;;;;;;;0.30;0.30;;;;;;;0.08;64.32;100517.69;5037431;28;20051;-73
2023/03/31 03:44:55;;;;;;;0.47;0.30;;;;;;;0.09;64.29;100519.44;5041284;28;20051;-73
2023/03/31 03:47:22;;;;;;;0.28;0.25;;;;;;;0.07;64.83;100510.84;5038277;28;20049;-72
2023/03/31 03:49:49;;;;;;;1.48;0.30;;;;;;;0.07;64.40;100510.84;5036680;28;20402;-72
2023/03/31 03:52:16;;;;;;;0.50;0.30;;;;;;;0.07;64.55;100513.41;5038452;28;20049;-72
2023/03/31 03:54:43;;;;;;;2.15;0.30;;;;;;;0.08;64.55;100517.69;5040336;28;20068;-72
2023/03/31 03:57:09;;;;;;;1.13;0.35;;;;;;;0.09;64.13;100519.44;5036089;28;20053;-72
2023/03/31 03:59:36;;;;;;;0.45;0.20;;;;;;;0.08;64.35;100516.84;5037522;28;20429;-72
2023/03/31 04:02:04;;;;;;;0.65;0.25;;;;;;;0.08;64.66;100515.13;5035882;28;20051;-72
2023/03/31 04:04:31;;;;;;;3.55;0.47;;;;;;;0.08;64.29;100512.56;5039371;28;20048;-73
2023/03/31 04:06:58;;;;;;;2.72;0.32;;;;;;;0.09;64.48;100514.31;5039100;28;20057;-72
2023/03/31 04:09:25;;;;;;;0.70;0.35;;;;;;;0.10;64.51;100513.47;5040514;28;20394;-73
2023/03/31 04:11:52;;;;;;;1.02;0.20;;;;;;;0.08;64.40;100515.13;5039853;28;20037;-72
2023/03/31 04:14:19;;;;;;;2.25;0.38;;;;;;;0.09;64.68;100511.75;5039921;28;20068;-72
2023/03/31 04:16:47;;;;;;;0.45;0.25;;;;;;;0.08;64.66;100517.69;5037015;28;20041;-72
2023/03/31 04:19:17;;;;;;;1.10;0.32;;;;;;;0.08;64.09;100522.84;5039786;28;20694;-72
2023/03/31 04:21:45;;;;;;;0.60;0.40;;;;;;;0.07;64.00;100515.97;5036288;28;20055;-72
2023/03/31 04:24:20;;;;;;;0.65;0.20;;;;;;;0.06;64.56;100513.38;5039304;28;20875;-72
2023/03/31 04:26:49;;;;;;;0.60;0.40;;;;;;;0.02;64.73;100507.31;5039527;28;20064;-72
2023/03/31 04:29:19;;;;;;;0.82;0.30;;;;;;;0.04;64.15;100513.34;5041644;28;20045;-72
2023/03/31 04:31:46;;;;;;;0.30;0.20;;;;;;;0.04;64.43;100513.34;5037827;28;20044;-73
2023/03/31 04:34:15;;;;;;;2.47;0.38;;;;;;;0.04;64.67;100515.91;5039349;28;20451;-72
2023/03/31 04:36:45;;;;;;;0.40;0.30;;;;;;;0.03;64.72;100519.34;5039210;28;20049;-72
2023/03/31 04:39:13;;;;;;;0.38;0.13;;;;;;;0.03;64.27;100514.19;5039041;28;20068;-73
2023/03/31 04:41:40;;;;;;;0.30;0.30;;;;;;;0.03;64.23;100526.16;5040295;28;20382;-73
2023/03/31 04:44:07;;;;;;;0.57;0.30;;;;;;;0.01;64.32;100518.44;5036901;28;20049;-72
2023/03/31 04:46:35;;;;;;;0.52;0.22;;;;;;;0.01;64.14;100515.84;5035576;28;20405;-72
2023/03/31 04:49:04;;;;;;;0.30;0.30;;;;;;;0.00;64.38;100509.00;5035798;28;20037;-73
2023/03/31 04:51:32;;;;;;;1.13;0.30;;;;;;;-0.02;64.79;100513.22;5039795;28;20127;-73
2023/03/31 04:53:59;;;;;;;0.73;0.22;;;;;;;-0.01;65.03;100512.38;5038826;28;20634;-72
2023/03/31 04:56:26;;;;;;;3.13;0.40;;;;;;;-0.03;64.74;100519.19;5039463;28;20186;-73
2023/03/31 04:58:53;;;;;;;3.88;0.43;;;;;;;-0.13;64.86;100500.16;5039432;28;20110;-73
2023/03/31 05:01:20;;;;;;;0.68;0.30;;;;;;;-0.04;64.76;100512.31;5039133;28;20041;-73
2023/03/31 05:03:47;;;;;;;3.40;0.30;;;;;;;-0.06;64.67;100511.41;5036657;28;20064;-73
2023/03/31 05:06:14;;;;;;;0.63;0.20;;;;;;;-0.05;65.10;100521.75;5036085;28;20045;-75
2023/03/31 05:08:43;;;;;;;0.50;0.30;;;;;;;-0.03;64.94;100524.31;5035718;28;20509;-74
2023/03/31 05:11:10;;;;;;;2.40;0.50;;;;;;;-0.03;65.00;100519.19;5038406;28;20057;-74
2023/03/31 05:13:37;;;;;;;0.38;0.30;;;;;;;-0.04;64.85;100522.59;5035918;28;20053;-74
2023/03/31 05:16:08;;;;;;;0.28;0.20;;;;;;;-0.05;65.03;100516.59;5039078;28;20045;-73
2023/03/31 05:18:35;;;;;;;0.40;0.30;;;;;;;-0.02;64.59;100521.78;5037139;28;20690;-73
2023/03/31 05:21:13;;;;;;;1.15;0.30;;;;;;;-0.02;64.60;100521.78;5041395;28;20055;-73
2023/03/31 05:23:40;;;;;;;1.77;0.20;;;;;;;-0.02;65.36;100518.38;5038799;28;20071;-72
2023/03/31 05:26:08;;;;;;;0.30;0.20;;;;;;;-0.12;64.85;100509.59;5041561;28;20048;-72
2023/03/31 05:28:36;;;;;;;0.30;0.30;;;;;;;-0.02;64.81;100520.94;5041972;28;20048;-72
2023/03/31 05:31:04;;;;;;;2.08;0.15;;;;;;;-0.01;64.83;100512.38;5037347;28;20049;-71
2023/03/31 05:33:32;;;;;;;1.00;0.30;;;;;;;-0.02;64.77;100518.38;5042424;28;20058;-74
2023/03/31 05:36:00;;;;;;;0.30;0.30;;;;;;;-0.02;65.04;100518.38;5040562;28;20053;-72
2023/03/31 05:38:30;;;;;;;0.52;0.35;;;;;;;-0.03;64.60;100512.38;5041425;28;20126;-72
2023/03/31 05:40:57;;;;;;;1.63;0.40;;;;;;;-0.01;65.40;100509.81;5042049;28;20055;-73
2023/03/31 05:43:25;;;;;;;2.30;0.40;;;;;;;-0.01;64.70;100502.13;5038954;28;20123;-73
2023/03/31 05:45:52;;;;;;;4.75;0.40;;;;;;;0.01;65.46;100515.00;5041088;28;20103;-73
2023/03/31 05:48:20;;;;;;;1.23;0.30;;;;;;;0.02;65.12;100516.72;5036217;28;20047;-70
2023/03/31 05:50:47;;;;;;;2.50;0.30;;;;;;;0.02;65.14;100516.72;5041525;28;20449;-70
2023/03/31 05:53:14;;;;;;;1.00;0.40;;;;;;;0.01;65.27;100521.00;5039560;28;20044;-72
2023/03/31 05:55:40;;;;;;;1.73;0.40;;;;;;;0.02;64.94;100516.72;5041047;28;20057;-72
2023/03/31 05:58:07;;;;;;;0.22;0.15;;;;;;;0.02;65.28;100512.44;5034913;28;20064;-73
2023/03/31 06:00:36;;;;;;;3.08;0.22;;;;;;;0.01;65.28;100513.28;5039507;28;20041;-73
2023/03/31 06:03:06;;;;;;;1.02;0.40;;;;;;;0.03;64.47;100515.88;5041433;28;20514;-72
2023/03/31 06:05:34;;;;;;;2.47;0.30;;;;;;;0.04;65.36;100520.19;5040620;28;20060;-73
2023/03/31 06:08:00;;;;;;;1.95;0.40;;;;;;;0.04;65.01;100515.06;5036998;28;20057;-72
2023/03/31 06:10:27;;;;;;;1.02;0.40;;;;;;;0.04;65.05;100521.06;5039573;28;20045;-73
2023/03/31 06:12:54;;;;;;;1.17;0.40;;;;;;;0.04;65.11;100521.06;5037357;28;20045;-74
2023/03/31 06:15:21;;;;;;;0.52;0.35;;;;;;;0.04;65.02;100521.06;5042795;28;20499;-74
2023/03/31 06:17:49;;;;;;;0.88;0.30;;;;;;;0.05;65.38;100522.78;5034427;28;20051;-71
2023/03/31 06:20:16;;;;;;;0.60;0.50;;;;;;;0.08;64.82;100524.53;5035472;28;20045;-71
2023/03/31 06:22:43;;;;;;;1.13;0.40;;;;;;;0.09;64.39;100523.72;5037104;28;20576;-72
2023/03/31 06:25:10;;;;;;;2.88;0.43;;;;;;;0.08;65.08;100525.41;5033234;28;20057;-72
2023/03/31 06:27:37;;;;;;;1.20;0.43;;;;;;;0.09;65.34;100529.72;5041849;28;20049;-73
2023/03/31 06:30:04;;;;;;;1.77;0.30;;;;;;;0.11;64.54;100524.59;5043521;28;20045;-72
2023/03/31 06:32:31;;;;;;;0.55;0.32;;;;;;;0.11;64.41;100528.03;5037702;28;20434;-73
2023/03/31 06:34:59;;;;;;;0.57;0.40;;;;;;;0.11;64.55;100522.91;5040419;28;20046;-73
2023/03/31 06:37:26;;;;;;;0.70;0.35;;;;;;;0.14;64.83;100533.25;5037287;28;20059;-73
2023/03/31 06:39:53;;;;;;;3.65;0.50;;;;;;;0.16;64.81;100530.69;5039890;28;20056;-74
2023/03/31 06:42:20;;;;;;;1.38;0.30;;;;;;;0.16;64.18;100535.84;5034764;28;20041;-71
2023/03/31 06:44:46;;;;;;;0.52;0.47;;;;;;;0.17;64.73;100535.88;5038355;28;20493;-73
2023/03/31 06:47:13;;;;;;;0.35;0.30;;;;;;;0.19;64.26;100535.91;5037032;28;20140;-74
2023/03/31 06:49:40;;;;;;;1.52;0.40;;;;;;;0.21;64.52;100536.81;5037118;28;20726;-74
2023/03/31 06:52:08;;;;;;;1.05;0.50;;;;;;;0.22;64.78;100541.94;5039401;28;20409;-73
2023/03/31 06:54:35;;;;;;;0.40;0.30;;;;;;;0.26;64.18;100534.31;5037475;28;20421;-74
2023/03/31 06:57:02;;;;;;;0.35;0.30;;;;;;;0.26;64.42;100542.91;5000056;28;1211380;-72
2023/03/31 06:59:29;;;;;;;0.77;0.40;;;;;;;0.26;63.88;100547.16;5041777;28;20045;-71
2023/03/31 07:01:56;;;;;;;1.10;0.40;;;;;;;0.27;64.00;100543.75;5044202;28;20075;-71
2023/03/31 07:04:22;;;;;;;0.32;0.30;;;;;;;0.29;63.82;100549.81;5039632;28;20052;-72
2023/03/31 07:06:50;;;;;;;0.50;0.40;;;;;;;0.31;63.98;100545.53;5037009;28;20536;-72
2023/03/31 07:09:20;;;;;;;1.50;0.40;;;;;;;0.31;64.05;100536.13;5040966;28;20356;-73
2023/03/31 07:11:47;;;;;;;0.55;0.30;;;;;;;0.34;64.14;100550.75;5038926;28;20417;-72
2023/03/31 07:14:14;;;;;;;1.00;0.30;;;;;;;0.35;63.84;100548.22;5042218;28;20517;-70
2023/03/31 07:16:41;;;;;;;0.77;0.40;;;;;;;0.36;63.86;100556.78;5038371;28;20053;-72
2023/03/31 07:19:09;;;;;;;1.60;0.50;;;;;;;0.37;63.56;100551.69;5041444;28;20053;-72
2023/03/31 07:21:36;;;;;;;3.05;0.50;;;;;;;0.39;63.62;100554.28;5040048;28;20665;-72
2023/03/31 07:24:04;;;;;;;0.40;0.30;;;;;;;0.41;63.60;100550.03;5040636;28;20057;-74
2023/03/31 07:26:33;;;;;;;0.43;0.30;;;;;;;0.40;63.54;100556.03;5037370;28;20137;-70
2023/03/31 07:29:00;;;;;;;0.50;0.30;;;;;;;0.41;63.57;100562.88;5040350;28;20515;-69
2023/03/31 07:31:27;;;;;;;3.97;0.80;;;;;;;0.40;63.61;100574.00;5041588;28;20474;-69
2023/03/31 07:33:53;;;;;;;1.05;0.30;;;;;;;0.39;63.10;100562.84;5035381;28;20051;-70
2023/03/31 07:36:20;;;;;;;5.78;0.38;;;;;;;0.42;63.13;100560.31;5038871;28;20504;-70
2023/03/31 07:38:48;;;;;;;1.20;0.40;;;;;;;0.42;62.60;100562.03;5035541;28;20049;-73
2023/03/31 07:41:16;;;;;;;2.53;0.30;;;;;;;0.41;62.70;100550.91;5038290;28;20041;-72
2023/03/31 07:43:45;;;;;;;1.85;0.45;;;;;;;0.38;62.94;100557.69;5038682;28;20058;-73
2023/03/31 07:46:17;;;;;;;0.30;0.17;;;;;;;0.42;62.43;100565.47;5037601;28;20048;-72
2023/03/31 07:48:45;;;;;;;0.75;0.30;;;;;;;0.39;62.70;100557.69;5039702;28;20052;-71
2023/03/31 07:51:12;;;;;;;1.20;0.50;;;;;;;0.42;62.32;100569.75;5038052;28;20076;-71
2023/03/31 07:53:39;;;;;;;0.98;0.40;;;;;;;0.43;62.49;100567.22;5041530;28;20052;-70
2023/03/31 07:56:06;;;;;;;0.40;0.30;;;;;;;0.44;62.03;100565.50;5034912;28;20055;-72
2023/03/31 07:58:33;;;;;;;1.92;0.30;;;;;;;0.45;61.93;100574.94;5035628;28;20064;-72
2023/03/31 08:01:01;;;;;;;1.73;0.30;;;;;;;0.46;62.10;100571.56;5038551;28;20052;-72
2023/03/31 08:03:28;;;;;;;2.05;0.30;;;;;;;0.46;62.28;100581.84;5038631;28;20128;-71
2023/03/31 08:05:56;;;;;;;2.15;0.20;;;;;;;0.45;61.46;100575.81;5035440;28;20061;-72
2023/03/31 08:08:23;;;;;;;1.05;0.40;;;;;;;0.45;61.72;100582.66;5040055;28;20388;-72
2023/03/31 08:10:50;;;;;;;0.63;0.30;;;;;;;0.46;61.65;100584.41;5035871;28;20047;-72
2023/03/31 08:13:17;;;;;;;0.73;0.30;;;;;;;0.47;61.12;100586.13;5040242;28;20075;-71
2023/03/31 08:15:44;;;;;;;1.73;0.40;;;;;;;0.45;61.17;100580.06;5021599;28;20140;-72
2023/03/31 08:18:12;;;;;;;1.38;0.40;;;;;;;0.48;60.69;100584.41;5038405;28;20182;-72
2023/03/31 08:20:39;;;;;;;0.50;0.30;;;;;;;0.48;60.74;100595.56;5035623;28;20045;-73
2023/03/31 08:23:10;;;;;;;1.67;0.38;;;;;;;0.49;60.49;100588.75;5037619;28;20138;-72
2023/03/31 08:25:37;;;;;;;0.43;0.30;;;;;;;0.30;60.27;100561.81;5037860;28;20061;-75
2023/03/31 08:28:05;;;;;;;1.42;0.40;;;;;;;0.49;59.78;100587.03;5035972;28;20049;-72
2023/03/31 08:30:33;;;;;;;0.47;0.30;;;;;;;0.52;60.40;100593.94;5034038;28;20045;-71
2023/03/31 08:33:00;;;;;;;2.17;0.45;;;;;;;0.48;60.53;100581.84;5038658;28;20049;-71
2023/03/31 08:35:29;;;;;;;2.40;1.00;;;;;;;0.54;60.33;100589.66;5036118;28;20048;-71
2023/03/31 08:37:56;;;;;;;2.60;0.40;;;;;;;0.55;60.01;100589.72;5037833;28;20044;-73
2023/03/31 08:40:26;;;;;;;0.80;0.40;;;;;;;0.57;60.13;100594.88;5037204;28;20053;-74
2023/03/31 08:42:56;;;;;;;0.35;0.30;;;;;;;0.60;60.83;100592.38;5037123;28;20625;-74
2023/03/31 08:45:27;;;;;;;1.35;0.30;;;;;;;0.63;60.00;100593.28;5037013;28;20674;-74
2023/03/31 08:47:59;;;;;;;1.33;0.28;;;;;;;0.67;60.51;100591.66;5038575;28;20413;-72
2023/03/31 08:50:31;;;;;;;3.25;0.30;;;;;;;0.70;60.41;100588.25;5040700;28;20861;-72
2023/03/31 08:53:05;;;;;;;0.82;0.30;;;;;;;0.74;60.57;100595.19;5038080;28;20482;-73
2023/03/31 08:55:40;;;;;;;2.22;0.50;;;;;;;0.76;59.74;100590.94;5038434;28;20098;-72
2023/03/31 08:58:15;;;;;;;0.55;0.30;;;;;;;0.76;59.49;100596.09;5036118;28;20045;-73
2023/03/31 09:00:51;;;;;;;1.13;0.40;;;;;;;0.75;59.78;100578.94;5036954;28;20417;-72
2023/03/31 09:03:27;;;;;;;1.27;0.20;;;;;;;0.78;59.01;100584.13;5039796;28;20046;-73
2023/03/31 09:06:01;;;;;;;0.52;0.30;;;;;;;0.77;59.02;100588.41;5034379;28;20052;-72
2023/03/31 09:08:38;;;;;;;1.88;0.30;;;;;;;0.77;58.31;100590.09;5040714;28;20425;-72
2023/03/31 09:11:15;;;;;;;0.30;0.30;;;;;;;0.78;58.78;100590.13;5036893;28;20056;-72
2023/03/31 09:13:59;;;;;;;0.52;0.30;;;;;;;0.78;59.46;100582.44;5036886;28;20508;-72
2023/03/31 09:16:32;;;;;;;1.17;0.30;;;;;;;0.80;59.22;100587.63;5034986;28;20048;-72
2023/03/31 09:19:01;;;;;;;1.08;0.40;;;;;;;0.81;58.80;100597.91;5040123;28;20048;-72
2023/03/31 09:21:33;;;;;;;0.98;0.30;;;;;;;0.84;58.66;100589.38;5035154;28;20619;-72
2023/03/31 09:24:05;;;;;;;0.55;0.40;;;;;;;0.85;59.21;100586.84;5034890;28;20063;-72
2023/03/31 09:26:38;;;;;;;0.13;0.13;;;;;;;0.89;59.20;100582.63;5039657;28;20052;-72
2023/03/31 09:29:13;;;;;;;0.90;0.40;;;;;;;0.89;58.25;100582.63;5039153;28;20045;-72
2023/03/31 09:31:43;;;;;;;0.93;0.45;;;;;;;0.94;59.15;100585.25;5036729;28;20041;-72
2023/03/31 09:34:14;;;;;;;1.55;0.60;;;;;;;0.97;58.46;100596.50;5038357;28;20042;-73
2023/03/31 09:36:43;;;;;;;0.20;0.10;;;;;;;1.02;58.47;100594.84;5036844;28;20083;-73
2023/03/31 09:39:13;;;;;;;0.40;0.40;;;;;;;1.07;58.64;100597.50;5038404;28;20059;-76
2023/03/31 09:41:45;;;;;;;1.35;0.20;;;;;;;1.14;58.24;100599.34;5035988;28;20049;-76
2023/03/31 09:44:28;;;;;;;0.57;0.40;;;;;;;1.19;58.59;100592.56;5038580;28;20600;-76
2023/03/31 09:46:55;;;;;;;0.80;0.20;;;;;;;1.21;58.78;100598.59;5037419;28;20049;-76
2023/03/31 09:49:26;;;;;;;0.20;0.20;;;;;;;1.26;57.49;100598.69;5035648;28;20053;-76
2023/03/31 09:52:03;;;;;;;0.80;0.43;;;;;;;1.28;58.46;100604.72;5019194;28;20057;-75
2023/03/31 09:54:36;;;;;;;0.50;0.22;;;;;;;1.27;58.29;100602.97;5039266;28;20064;-75
2023/03/31 09:57:12;;;;;;;1.08;0.38;;;;;;;1.24;57.75;100584.94;5037225;28;20059;-74
2023/03/31 09:59:40;;;;;;;0.45;0.30;;;;;;;1.27;56.61;100595.25;5035773;28;20056;-75
2023/03/31 10:02:26;;;;;;;5.25;0.20;;;;;;;1.27;57.18;100602.97;5036697;28;20515;-75
2023/03/31 10:04:53;;;;;;;0.82;0.15;;;;;;;1.30;57.21;100595.31;5038194;28;20412;-75
2023/03/31 10:07:24;;;;;;;1.35;0.28;;;;;;;1.33;57.75;100600.50;5037314;28;20106;-74
2023/03/31 10:09:53;;;;;;;0.65;0.25;;;;;;;1.36;57.42;100603.13;5042610;28;20509;-75
2023/03/31 10:12:23;;;;;;;1.75;0.20;;;;;;;1.38;57.06;100609.16;5043443;28;20048;-74
2023/03/31 10:14:51;;;;;;;2.25;0.30;;;;;;;1.40;57.29;100601.50;5043779;28;20107;-75
2023/03/31 10:17:20;;;;;;;0.82;0.20;;;;;;;1.42;56.59;100608.38;5042171;28;20634;-74
2023/03/31 10:19:52;;;;;;;2.83;0.30;;;;;;;1.42;56.08;100615.22;5043824;28;20046;-75
2023/03/31 10:22:29;;;;;;;0.82;0.20;;;;;;;1.43;56.55;100611.84;5042333;28;20379;-74
2023/03/31 10:25:10;;;;;;;0.63;0.30;;;;;;;1.43;56.21;100607.56;5040752;28;20059;-75
2023/03/31 10:27:40;;;;;;;2.38;0.40;;;;;;;1.46;56.06;100611.88;5040178;28;20842;-74
2023/03/31 10:30:11;;;;;;;1.52;0.28;;;;;;;1.46;55.81;100607.59;5038733;28;20402;-73
2023/03/31 10:32:41;;;;;;;0.47;0.22;;;;;;;1.48;56.07;100616.22;5036394;28;20088;-72
2023/03/31 10:35:21;;;;;;;2.22;0.20;;;;;;;1.49;55.62;100609.34;5043161;28;20041;-72
2023/03/31 10:37:54;;;;;;;0.60;0.15;;;;;;;1.49;56.45;100612.78;5043506;28;20068;-72
2023/03/31 10:40:23;;;;;;;3.03;0.30;;;;;;;1.49;55.44;100606.78;5043505;28;20497;-72
2023/03/31 10:43:03;;;;;;;1.00;0.40;;;;;;;1.51;55.35;100613.69;5036893;28;20055;-72
2023/03/31 10:45:31;;;;;;;0.52;0.17;;;;;;;1.55;55.95;100612.03;5041556;28;20049;-72
2023/03/31 10:48:00;;;;;;;0.40;0.20;;;;;;;1.57;56.03;100616.34;5038779;28;20053;-72
2023/03/31 10:50:29;;;;;;;0.85;0.17;;;;;;;1.61;55.54;100611.25;5040328;28;20041;-74
2023/03/31 10:53:04;;;;;;;2.80;0.30;;;;;;;1.62;55.84;100602.66;5036671;28;20454;-72
2023/03/31 10:55:37;;;;;;;2.03;0.40;;;;;;;1.64;55.44;100617.31;5038170;28;20049;-72
2023/03/31 10:58:17;;;;;;;1.45;0.30;;;;;;;1.64;55.65;100606.13;5038115;28;20053;-73
2023/03/31 11:01:01;;;;;;;0.35;0.25;;;;;;;1.64;54.83;100612.16;5040152;28;20049;-74
2023/03/31 11:03:50;;;;;;;1.60;0.35;;;;;;;1.66;55.77;100617.34;5038280;28;20413;-74
2023/03/31 11:06:26;;;;;;;2.92;0.30;;;;;;;1.65;54.95;100610.44;5040276;28;20053;-72
2023/03/31 11:09:07;;;;;;;1.17;0.20;;;;;;;1.65;54.48;100623.31;5039502;28;20052;-72
2023/03/31 11:11:58;;;;;;;0.50;0.30;;;;;;;1.64;54.66;100617.31;5040019;28;20052;-72
2023/03/31 11:14:38;;;;;;;1.45;0.17;;;;;;;1.62;54.56;100612.97;5039410;28;20046;-74
2023/03/31 11:17:18;;;;;;;1.40;0.30;;;;;;;1.59;54.58;100618.94;5040216;28;20048;-73
2023/03/31 11:19:56;;;;;;;0.85;0.30;;;;;;;1.55;54.09;100612.88;5037627;28;20052;-72
2023/03/31 11:22:31;;;;;;;0.80;0.20;;;;;;;1.54;54.88;100594.84;5034363;28;20509;-73
2023/03/31 11:25:23;;;;;;;0.80;0.30;;;;;;;1.54;54.92;100600.84;5033577;28;20056;-75
2023/03/31 11:28:05;;;;;;;0.50;0.35;;;;;;;1.54;53.93;100611.16;5043222;28;20059;-73
2023/03/31 11:30:38;;;;;;;0.85;0.30;;;;;;;1.50;53.97;100604.22;5036270;28;20049;-70
2023/03/31 11:33:31;;;;;;;3.70;0.63;;;;;;;1.48;54.80;100611.06;5037753;28;20041;-70
2023/03/31 11:36:11;;;;;;;0.43;0.30;;;;;;;1.47;54.38;100614.47;5044656;28;20041;-73
2023/03/31 11:38:52;;;;;;;0.57;0.22;;;;;;;1.46;54.50;100619.59;5035975;28;20049;-73
2023/03/31 11:41:32;;;;;;;0.98;0.20;;;;;;;1.47;54.84;100608.44;5040222;28;21035;-72
2023/03/31 11:44:03;;;;;;;0.80;0.30;;;;;;;1.49;54.20;100606.78;5041106;28;20049;-72
2023/03/31 11:46:38;;;;;;;2.20;0.40;;;;;;;1.48;54.18;100600.78;5037807;28;20053;-73
2023/03/31 11:49:11;;;;;;;0.65;0.40;;;;;;;1.50;54.62;100606.78;5038546;28;20561;-73
2023/03/31 11:51:44;;;;;;;0.30;0.20;;;;;;;1.46;54.29;100607.59;5036681;28;20045;-74